Time;durP1;ratioP1;P1;durP2;ratioP2;P2;SDS_P1;SDS_P2;PMS_P1;PMS_P2;Temp;Humidity;BMP_temperature;BMP_pressure;BME280_temperature;BME280_humidity;BME280_pressure;Samples;Min_cycle;Max_cycle;Signal;HPM_P1;HPM_P2
2022/11/25 03:48:20;;;;;;;2.17;0.40;;;5.70;92.90;;;;;;4847805;23;88374;-70
2022/11/25 03:50:48;;;;;;;4.38;0.20;;;5.60;93.10;;;;;;4806374;29;86765;-71
2022/11/25 03:53:13;;;;;;;3.30;0.40;;;5.60;93.00;;;;;;4804741;29;87292;-71
2022/11/25 03:55:39;;;;;;;4.18;0.70;;;5.60;93.00;;;;;;4805193;29;87395;-71
2022/11/25 03:58:05;;;;;;;2.80;0.45;;;5.60;93.10;;;;;;4806255;29;86396;-71
2022/11/25 04:00:32;;;;;;;1.80;0.38;;;5.60;92.90;;;;;;4807812;29;86433;-71
2022/11/25 04:02:58;;;;;;;2.40;0.22;;;5.50;93.20;;;;;;4806897;29;87103;-71
2022/11/25 04:05:23;;;;;;;4.13;0.32;;;5.50;93.10;;;;;;4805905;29;86973;-71
2022/11/25 04:07:49;;;;;;;1.70;0.30;;;5.50;93.20;;;;;;4810994;29;86363;-71
2022/11/25 04:10:15;;;;;;;4.13;0.40;;;5.50;93.30;;;;;;4807368;29;86330;-71
2022/11/25 04:12:46;;;;;;;2.78;0.50;;;5.50;93.50;;;;;;4813259;29;88005;-71
2022/11/25 04:15:16;;;;;;;3.95;0.60;;;5.50;93.70;;;;;;4807268;29;87087;-71
2022/11/25 04:17:43;;;;;;;3.10;0.40;;;5.50;93.70;;;;;;4806715;29;86301;-73
2022/11/25 04:20:11;;;;;;;2.53;0.30;;;5.50;93.80;;;;;;4823390;29;86957;-72
2022/11/25 04:22:37;;;;;;;3.20;0.70;;;5.50;93.70;;;;;;4825808;29;86889;-72
2022/11/25 04:25:03;;;;;;;4.82;1.20;;;5.50;93.60;;;;;;4816276;29;86721;-70
2022/11/25 04:27:29;;;;;;;6.20;0.82;;;5.50;93.50;;;;;;4807291;29;86542;-70
2022/11/25 04:29:55;;;;;;;3.45;0.90;;;5.50;93.50;;;;;;4803476;29;85760;-71
2022/11/25 04:32:21;;;;;;;4.50;0.60;;;5.50;93.40;;;;;;4808595;29;87064;-71
2022/11/25 04:34:47;;;;;;;3.50;0.50;;;5.40;93.20;;;;;;4806510;29;87206;-71
2022/11/25 04:37:12;;;;;;;3.00;0.30;;;5.40;93.20;;;;;;4807106;29;87571;-71
2022/11/25 04:39:38;;;;;;;3.70;0.22;;;5.40;93.10;;;;;;4803268;29;86848;-71
2022/11/25 04:44:48;;;;;;;3.10;0.43;;;5.30;92.70;;;;;;4798837;29;87095;-71
2022/11/25 04:47:13;;;;;;;3.42;0.57;;;5.30;93.10;;;;;;4800941;29;86454;-71
2022/11/25 04:49:39;;;;;;;3.33;0.50;;;5.20;93.30;;;;;;4801533;29;87108;-73
2022/11/25 04:52:05;;;;;;;2.67;0.52;;;5.20;93.30;;;;;;4802580;29;86705;-72
2022/11/25 04:54:30;;;;;;;3.90;0.50;;;5.20;93.30;;;;;;4797555;29;86979;-72
2022/11/25 04:56:56;;;;;;;2.30;0.32;;;5.20;93.10;;;;;;4801937;29;86875;-72
2022/11/25 04:59:40;;;;;;;2.38;0.40;;;5.10;93.00;;;;;;4805692;29;87030;-72
2022/11/25 05:02:16;;;;;;;2.20;0.35;;;5.10;92.90;;;;;;4798895;29;87698;-72
2022/11/25 05:04:43;;;;;;;1.42;0.30;;;5.10;92.70;;;;;;4804733;29;87198;-72
2022/11/25 05:07:10;;;;;;;2.53;0.35;;;5.00;92.80;;;;;;4804945;29;87414;-70
2022/11/25 05:09:37;;;;;;;2.95;0.40;;;4.90;93.10;;;;;;4808064;29;87068;-70
2022/11/25 05:12:04;;;;;;;2.38;0.50;;;4.90;93.30;;;;;;4806764;29;86696;-70
2022/11/25 05:14:30;;;;;;;4.43;0.40;;;4.70;93.80;;;;;;4793503;29;87408;-71
2022/11/25 05:16:55;;;;;;;2.50;0.40;;;4.70;93.90;;;;;;4805055;29;86785;-70
2022/11/25 05:19:21;;;;;;;2.75;0.40;;;4.60;93.90;;;;;;4806588;29;86163;-71
2022/11/25 05:21:47;;;;;;;2.55;0.30;;;4.60;93.90;;;;;;4805759;29;86831;-70
2022/11/25 05:24:12;;;;;;;3.03;0.40;;;4.60;94.20;;;;;;4801752;29;86986;-70
2022/11/25 05:26:38;;;;;;;2.92;0.38;;;4.60;94.10;;;;;;4804884;29;88242;-70
2022/11/25 05:29:04;;;;;;;4.35;0.50;;;4.60;94.00;;;;;;4805972;29;86886;-70
2022/11/25 05:31:29;;;;;;;4.88;0.40;;;4.70;94.00;;;;;;4808597;29;86495;-71
2022/11/25 05:33:55;;;;;;;2.42;0.40;;;4.80;93.70;;;;;;4806504;29;87820;-72
2022/11/25 05:36:21;;;;;;;4.20;0.40;;;4.80;93.40;;;;;;4803186;29;86946;-72
2022/11/25 05:38:46;;;;;;;4.40;0.80;;;4.90;93.30;;;;;;4804537;29;87307;-71
2022/11/25 05:41:12;;;;;;;2.42;0.30;;;4.90;93.20;;;;;;4798064;29;87262;-69
2022/11/25 05:43:38;;;;;;;2.05;0.30;;;4.90;92.90;;;;;;4805457;29;86179;-70
2022/11/25 05:46:05;;;;;;;3.72;0.40;;;5.00;92.90;;;;;;4801153;29;87070;-71
2022/11/25 05:48:31;;;;;;;4.07;0.30;;;5.00;92.70;;;;;;4805201;29;87048;-70
2022/11/25 05:50:59;;;;;;;2.17;0.30;;;5.00;92.50;;;;;;4804326;29;88224;-70
2022/11/25 05:53:25;;;;;;;2.05;0.30;;;5.10;92.30;;;;;;4811190;29;87952;-70
2022/11/25 05:55:55;;;;;;;3.70;0.30;;;5.10;92.10;;;;;;4801281;29;86568;-71
2022/11/25 05:58:22;;;;;;;3.05;0.30;;;5.20;91.90;;;;;;4806238;29;88530;-71
2022/11/25 06:00:48;;;;;;;3.55;0.73;;;5.20;91.70;;;;;;4808674;29;87258;-71
2022/11/25 06:03:13;;;;;;;1.77;0.30;;;5.20;91.30;;;;;;4798309;29;87630;-72
2022/11/25 06:05:40;;;;;;;2.30;0.35;;;5.30;91.20;;;;;;4803800;29;86818;-72
2022/11/25 06:08:06;;;;;;;3.78;0.35;;;5.40;91.00;;;;;;4810317;29;86310;-70
2022/11/25 06:10:32;;;;;;;1.95;0.30;;;5.40;90.80;;;;;;4807560;29;86674;-70
2022/11/25 06:12:58;;;;;;;2.13;0.20;;;5.40;90.60;;;;;;4800623;29;86960;-70
2022/11/25 06:15:24;;;;;;;3.10;0.40;;;5.50;90.80;;;;;;4804685;29;87355;-70
2022/11/25 06:17:50;;;;;;;3.05;0.40;;;5.60;90.30;;;;;;4801286;29;87097;-72
2022/11/25 06:20:16;;;;;;;2.25;0.55;;;5.60;90.10;;;;;;4803860;29;87878;-73
2022/11/25 06:22:42;;;;;;;4.97;0.93;;;5.60;88.80;;;;;;4804318;29;86837;-70
2022/11/25 06:25:08;;;;;;;2.47;0.47;;;5.70;88.60;;;;;;4800660;29;86556;-72
2022/11/25 06:27:33;;;;;;;3.58;0.40;;;5.80;90.90;;;;;;4797873;29;86653;-70
2022/11/25 06:29:59;;;;;;;1.40;0.20;;;5.90;89.10;;;;;;4804701;29;86746;-70
2022/11/25 06:32:25;;;;;;;3.47;0.30;;;5.90;88.00;;;;;;4810057;29;87049;-72
2022/11/25 06:34:50;;;;;;;1.25;0.10;;;5.90;86.80;;;;;;4806356;29;86546;-70
2022/11/25 06:37:16;;;;;;;1.48;0.20;;;6.00;85.90;;;;;;4806339;29;86712;-70
2022/11/25 06:39:42;;;;;;;3.55;0.88;;;6.10;84.80;;;;;;4802318;29;87640;-70
2022/11/25 06:42:08;;;;;;;0.98;0.15;;;6.20;85.00;;;;;;4803379;29;87032;-70
2022/11/25 06:44:34;;;;;;;1.13;0.10;;;6.30;85.40;;;;;;4800532;29;86950;-70
2022/11/25 06:46:59;;;;;;;2.38;0.22;;;6.30;83.70;;;;;;4807478;29;86758;-70
2022/11/25 06:49:25;;;;;;;4.38;0.77;;;6.30;83.90;;;;;;4803294;29;86737;-70
2022/11/25 06:51:51;;;;;;;4.38;0.70;;;6.30;84.80;;;;;;4803444;29;87043;-70
2022/11/25 06:54:16;;;;;;;6.70;0.77;;;6.20;85.00;;;;;;4801496;29;86323;-72
2022/11/25 06:56:42;;;;;;;2.75;0.50;;;6.20;85.40;;;;;;4800793;29;85670;-70
2022/11/25 06:59:08;;;;;;;3.47;0.63;;;6.20;85.30;;;;;;4805452;29;86482;-72
2022/11/25 07:01:34;;;;;;;4.20;0.20;;;6.20;85.40;;;;;;4805600;29;89867;-70
2022/11/25 07:04:02;;;;;;;1.98;0.20;;;6.20;84.60;;;;;;4804239;29;88054;-70
2022/11/25 07:06:28;;;;;;;2.85;0.10;;;6.20;84.50;;;;;;4806048;29;86266;-72
2022/11/25 07:08:55;;;;;;;1.20;0.17;;;6.20;84.40;;;;;;4795503;29;87243;-72
2022/11/25 07:11:35;;;;;;;2.20;0.30;;;6.30;84.10;;;;;;4795903;29;86697;-70
2022/11/25 07:14:08;;;;;;;4.95;0.30;;;6.30;83.90;;;;;;4791088;29;87166;-70
2022/11/25 07:16:35;;;;;;;3.25;0.20;;;6.30;83.50;;;;;;4797704;29;87181;-70
2022/11/25 07:19:02;;;;;;;1.35;0.10;;;6.40;83.80;;;;;;4795375;29;87192;-70
2022/11/25 07:21:29;;;;;;;0.90;0.10;;;6.40;84.00;;;;;;4808810;29;86146;-71
2022/11/25 07:23:56;;;;;;;4.97;0.10;;;6.50;83.50;;;;;;4805010;29;86746;-71
2022/11/25 07:26:25;;;;;;;1.73;0.20;;;6.50;82.50;;;;;;4798884;29;88209;-70
2022/11/25 07:28:52;;;;;;;1.23;0.10;;;6.60;83.10;;;;;;4800772;29;88209;-72
2022/11/25 07:31:24;;;;;;;5.05;0.10;;;6.80;81.60;;;;;;4793604;29;87871;-71
2022/11/25 07:34:01;;;;;;;0.98;0.10;;;6.90;81.30;;;;;;4793648;29;86544;-72
2022/11/25 07:36:29;;;;;;;5.68;0.30;;;7.10;80.50;;;;;;4813886;29;86855;-72
2022/11/25 07:38:57;;;;;;;2.67;0.30;;;7.20;80.80;;;;;;4804913;29;86961;-72
2022/11/25 07:41:24;;;;;;;4.53;0.30;;;7.40;81.00;;;;;;4805748;29;86634;-72
2022/11/25 07:43:53;;;;;;;6.57;0.30;;;7.50;80.90;;;;;;4802899;29;86854;-72
2022/11/25 07:46:20;;;;;;;4.22;0.30;;;7.60;81.10;;;;;;4800997;29;85572;-72
2022/11/25 07:48:46;;;;;;;5.38;0.70;;;7.70;81.20;;;;;;4800342;29;87345;-71
2022/11/25 07:51:14;;;;;;;4.45;0.50;;;7.70;81.50;;;;;;4804740;29;86313;-72
2022/11/25 07:53:40;;;;;;;2.80;0.60;;;7.80;80.20;;;;;;4804721;29;87706;-72
2022/11/25 07:56:06;;;;;;;4.45;0.65;;;7.90;80.60;;;;;;4804629;29;86749;-72
2022/11/25 07:58:32;;;;;;;3.78;0.30;;;7.90;80.20;;;;;;4816557;29;87197;-72
2022/11/25 08:01:02;;;;;;;3.25;0.40;;;8.00;80.00;;;;;;4802315;29;86309;-72
2022/11/25 08:03:27;;;;;;;;;;;8.10;80.30;;;;;;4805920;29;86717;-72
2022/11/25 08:05:53;;;;;;;2.35;0.30;;;8.30;80.60;;;;;;4807114;29;87386;-71
2022/11/25 08:08:19;;;;;;;4.18;0.32;;;8.40;79.90;;;;;;4805387;29;87221;-70
2022/11/25 08:10:45;;;;;;;4.32;0.30;;;8.60;78.20;;;;;;4804290;29;86962;-70
2022/11/25 08:13:10;;;;;;;3.03;0.40;;;8.80;77.00;;;;;;4805211;29;86728;-70
2022/11/25 08:15:36;;;;;;;1.67;0.32;;;8.90;77.90;;;;;;4803354;29;86337;-70
2022/11/25 08:18:01;;;;;;;7.45;0.50;;;9.00;76.10;;;;;;4804712;29;88119;-72
2022/11/25 08:20:27;;;;;;;1.48;0.20;;;9.20;74.60;;;;;;4805410;29;87369;-72
2022/11/25 08:22:53;;;;;;;3.08;0.35;;;9.30;74.60;;;;;;4805881;29;86762;-71
2022/11/25 08:25:19;;;;;;;2.40;0.22;;;9.50;75.40;;;;;;4805680;29;86960;-72
2022/11/25 08:27:46;;;;;;;2.30;0.40;;;9.80;73.40;;;;;;4804215;29;86600;-70
2022/11/25 08:30:12;;;;;;;4.88;0.47;;;10.70;71.80;;;;;;4802132;29;87196;-72
2022/11/25 08:32:38;;;;;;;4.68;0.63;;;11.40;69.00;;;;;;4803092;29;86746;-71
2022/11/25 08:35:04;;;;;;;2.85;0.20;;;11.70;69.60;;;;;;4805449;29;86343;-72
2022/11/25 08:37:30;;;;;;;2.25;0.70;;;12.20;66.60;;;;;;4796271;29;88493;-72
2022/11/25 08:39:56;;;;;;;3.95;0.28;;;13.00;66.10;;;;;;4804181;29;86853;-72
2022/11/25 08:42:22;;;;;;;3.40;0.20;;;13.70;63.30;;;;;;4805015;29;87980;-72
2022/11/25 08:44:54;;;;;;;2.55;0.20;;;14.10;60.30;;;;;;4804032;29;86462;-72
2022/11/25 08:47:21;;;;;;;5.07;0.43;;;13.90;58.70;;;;;;4801668;29;86547;-72
2022/11/25 08:49:53;;;;;;;3.90;0.40;;;13.50;60.90;;;;;;4804760;29;86910;-72
2022/11/25 08:52:20;;;;;;;6.07;0.30;;;13.30;59.50;;;;;;4804597;29;86310;-72
2022/11/25 08:54:46;;;;;;;5.25;0.50;;;13.00;61.00;;;;;;4805534;29;86593;-69
2022/11/25 08:57:13;;;;;;;2.25;0.40;;;12.80;61.30;;;;;;4804622;29;86798;-72
2022/11/25 08:59:39;;;;;;;2.17;0.65;;;12.60;62.20;;;;;;4804659;29;86090;-72
2022/11/25 09:02:06;;;;;;;5.07;0.28;;;12.60;63.00;;;;;;4803051;29;87002;-72
2022/11/25 09:04:32;;;;;;;3.95;0.22;;;12.60;64.50;;;;;;4804975;29;86263;-72
2022/11/25 09:06:59;;;;;;;4.60;0.47;;;12.70;64.50;;;;;;4804120;29;88569;-72
2022/11/25 09:09:24;;;;;;;5.45;0.28;;;12.80;65.00;;;;;;4804341;29;87111;-72
2022/11/25 09:11:50;;;;;;;4.05;1.17;;;12.90;65.00;;;;;;4801255;29;86902;-72
2022/11/25 09:14:16;;;;;;;3.58;0.80;;;12.90;67.00;;;;;;4804460;29;87526;-72
2022/11/25 09:16:41;;;;;;;2.75;0.68;;;12.80;68.10;;;;;;4800731;29;87314;-71
2022/11/25 09:19:07;;;;;;;4.75;0.82;;;12.90;70.10;;;;;;4804453;29;86879;-72
2022/11/25 09:21:33;;;;;;;3.35;1.00;;;13.30;70.10;;;;;;4804221;29;87044;-71
2022/11/25 09:23:58;;;;;;;4.72;0.90;;;13.60;69.10;;;;;;4804964;29;86154;-72
2022/11/25 09:26:30;;;;;;;3.33;0.80;;;13.90;67.00;;;;;;4804069;29;87791;-72
2022/11/25 09:28:56;;;;;;;5.28;0.55;;;13.80;64.90;;;;;;4803967;29;87151;-72
2022/11/25 09:31:22;;;;;;;3.35;0.40;;;13.70;62.80;;;;;;4792096;29;87804;-72
2022/11/25 09:33:48;;;;;;;6.47;0.40;;;13.70;62.90;;;;;;4804475;29;86368;-71
2022/11/25 09:36:16;;;;;;;3.28;0.52;;;13.90;62.10;;;;;;4804139;29;86773;-72
2022/11/25 09:38:44;;;;;;;2.47;0.38;;;14.60;58.60;;;;;;4792645;29;86545;-69
2022/11/25 09:41:10;;;;;;;6.53;0.40;;;15.30;56.40;;;;;;4804279;29;86871;-70
2022/11/25 09:47:38;;;;;;;4.95;0.60;;;15.00;55.20;;;;;;4803795;29;86760;-72
2022/11/25 09:50:26;;;;;;;1.23;0.20;;;15.00;54.80;;;;;;4731566;29;87153;-71
2022/11/25 09:53:27;;;;;;;2.47;0.60;;;15.10;54.80;;;;;;4802021;29;86457;-72
2022/11/25 09:56:00;;;;;;;2.63;0.10;;;15.80;52.80;;;;;;4803419;29;87329;-72
2022/11/25 09:58:37;;;;;;;1.50;0.20;;;16.30;50.90;;;;;;4803125;29;87982;-72
2022/11/25 10:01:14;;;;;;;1.10;0.30;;;16.20;49.10;;;;;;4803369;29;87915;-72
2022/11/25 10:04:04;;;;;;;4.88;0.30;;;16.00;50.90;;;;;;4803465;29;86486;-72
2022/11/25 10:06:44;;;;;;;2.78;0.20;;;15.80;50.80;;;;;;4799524;29;86364;-73
2022/11/25 10:09:13;;;;;;;3.28;0.22;;;15.50;50.80;;;;;;4803692;29;88871;-72
2022/11/25 10:11:53;;;;;;;4.28;0.22;;;15.10;52.90;;;;;;4798897;29;86991;-72
2022/11/25 10:14:36;;;;;;;2.40;0.20;;;14.80;52.40;;;;;;4804255;29;86379;-72
2022/11/25 10:17:13;;;;;;;2.25;0.13;;;14.30;53.90;;;;;;4805096;29;85568;-70
2022/11/25 10:20:03;;;;;;;3.85;0.30;;;13.80;55.20;;;;;;4805136;29;87597;-72
2022/11/25 10:22:40;;;;;;;2.08;0.20;;;13.60;56.90;;;;;;4801822;29;86929;-70
2022/11/25 10:25:27;;;;;;;6.30;0.20;;;13.20;56.70;;;;;;4803329;29;87214;-71
2022/11/25 10:27:58;;;;;;;3.90;0.20;;;12.90;57.70;;;;;;4797747;29;86354;-72
2022/11/25 10:30:26;;;;;;;1.33;0.28;;;12.80;59.30;;;;;;4803114;29;86725;-70
2022/11/25 10:32:58;;;;;;;2.47;0.20;;;12.60;59.60;;;;;;4801901;29;86929;-70
2022/11/25 10:35:34;;;;;;;3.40;0.30;;;12.30;60.30;;;;;;4801667;29;86790;-70
2022/11/25 10:38:04;;;;;;;3.92;0.35;;;12.00;62.20;;;;;;4807925;29;86894;-70
2022/11/25 10:40:30;;;;;;;3.10;0.43;;;11.70;62.40;;;;;;4802928;29;86520;-71
2022/11/25 10:42:56;;;;;;;2.88;0.25;;;11.60;63.50;;;;;;4803456;29;86578;-70
2022/11/25 10:45:29;;;;;;;4.25;0.28;;;11.70;63.70;;;;;;4803164;29;86826;-70
2022/11/25 10:48:12;;;;;;;4.25;0.30;;;11.80;63.30;;;;;;4803031;29;86218;-71
2022/11/25 10:50:47;;;;;;;;;;;11.90;63.10;;;;;;4796849;29;88287;-71
2022/11/25 10:53:19;;;;;;;2.35;0.20;;;12.00;63.50;;;;;;4807363;29;87828;-71
2022/11/25 10:56:02;;;;;;;1.80;0.40;;;12.20;62.90;;;;;;4806431;29;86288;-71
2022/11/25 10:58:32;;;;;;;;;;;12.40;63.70;;;;;;4806781;29;86455;-70
2022/11/25 11:01:24;;;;;;;4.60;0.75;;;12.50;65.70;;;;;;4806519;29;86418;-70
2022/11/25 11:03:53;;;;;;;5.13;0.98;;;12.70;62.60;;;;;;4803427;29;87114;-70
2022/11/25 11:06:35;;;;;;;1.60;0.22;;;13.00;65.80;;;;;;4807545;29;86437;-70
2022/11/25 11:09:01;;;;;;;4.65;0.32;;;13.20;60.70;;;;;;4806375;29;86262;-70
2022/11/25 11:11:28;;;;;;;2.47;0.25;;;13.30;60.60;;;;;;4801988;29;87103;-70
2022/11/25 11:14:19;;;;;;;5.38;0.70;;;13.20;60.60;;;;;;4800011;29;87244;-71
2022/11/25 11:16:55;;;;;;;4.10;0.38;;;13.30;61.30;;;;;;4801300;29;87839;-71
2022/11/25 11:19:26;;;;;;;4.25;0.40;;;13.50;62.10;;;;;;4800318;29;87014;-71
2022/11/25 11:21:53;;;;;;;3.53;0.90;;;13.60;62.70;;;;;;4800992;29;87759;-71
2022/11/25 11:24:36;;;;;;;4.15;1.80;;;13.60;64.20;;;;;;4799403;29;86742;-71
2022/11/25 11:27:12;;;;;;;7.03;1.75;;;13.60;69.70;;;;;;4803612;29;86696;-70
2022/11/25 11:29:38;;;;;;;;;;;13.50;71.30;;;;;;4801121;29;86841;-72
2022/11/25 11:32:06;;;;;;;4.25;1.80;;;13.30;72.30;;;;;;4802715;29;87312;-71
2022/11/25 11:34:56;;;;;;;5.07;1.73;;;13.20;72.40;;;;;;4804189;29;87178;-71
2022/11/25 11:37:31;;;;;;;7.15;1.25;;;13.10;72.80;;;;;;4803339;29;86372;-71
2022/11/25 11:39:58;;;;;;;5.38;1.27;;;13.10;72.60;;;;;;4802174;29;86761;-71
2022/11/25 11:42:52;;;;;;;5.75;1.10;;;13.00;74.10;;;;;;4795526;29;88641;-71
2022/11/25 11:45:24;;;;;;;3.13;1.20;;;13.00;73.70;;;;;;4795350;29;88687;-71
2022/11/25 11:48:01;;;;;;;3.47;1.13;;;13.00;74.10;;;;;;4800359;29;86452;-71
2022/11/25 11:50:44;;;;;;;3.40;1.00;;;13.10;74.40;;;;;;4792444;29;88321;-71
2022/11/25 11:53:12;;;;;;;3.53;1.17;;;13.00;74.40;;;;;;4799830;29;87442;-71
2022/11/25 11:56:15;;;;;;;3.40;1.20;;;13.00;74.10;;;;;;4799968;29;87109;-71
2022/11/25 11:59:00;;;;;;;4.32;1.50;;;13.10;74.90;;;;;;4796374;29;87017;-70
2022/11/25 12:01:38;;;;;;;7.50;1.88;;;13.00;74.80;;;;;;4798841;29;87093;-70
2022/11/25 12:04:21;;;;;;;4.50;1.13;;;13.10;75.60;;;;;;4801919;29;87886;-70
2022/11/25 12:06:59;;;;;;;5.07;1.90;;;13.10;75.50;;;;;;4803200;29;87354;-71
2022/11/25 12:09:28;;;;;;;3.72;1.33;;;13.10;74.30;;;;;;4802947;29;87597;-71
2022/11/25 12:12:00;;;;;;;5.68;1.63;;;13.10;75.40;;;;;;4800028;29;87123;-70
2022/11/25 12:14:34;;;;;;;3.67;1.85;;;13.10;74.70;;;;;;4803930;29;86975;-70
2022/11/25 12:17:06;;;;;;;10.05;2.13;;;13.10;75.00;;;;;;4800466;29;86829;-71
2022/11/25 12:19:53;;;;;;;5.40;2.28;;;13.10;75.40;;;;;;4791327;29;87604;-71
2022/11/25 12:22:28;;;;;;;5.80;1.98;;;13.20;75.40;;;;;;4813542;29;88416;-71
2022/11/25 12:25:18;;;;;;;4.47;1.60;;;13.30;74.80;;;;;;4799722;29;87343;-71
2022/11/25 12:27:59;;;;;;;3.03;1.30;;;13.30;74.30;;;;;;4796490;29;86996;-71
2022/11/25 12:30:32;;;;;;;6.20;2.15;;;13.30;73.50;;;;;;4807893;29;86929;-71
2022/11/25 12:33:43;;;;;;;5.53;1.70;;;13.30;74.10;;;;;;4792457;29;86911;-70
2022/11/25 12:36:16;;;;;;;5.15;1.45;;;13.30;74.30;;;;;;4723174;29;90470;-70
2022/11/25 12:38:58;;;;;;;4.97;1.98;;;13.20;74.10;;;;;;4799759;29;87117;-70
2022/11/25 12:41:46;;;;;;;4.22;1.60;;;13.10;74.60;;;;;;4795165;29;86453;-71
2022/11/25 12:44:33;;;;;;;3.78;1.60;;;13.10;75.30;;;;;;4802459;29;87100;-71
2022/11/25 12:47:00;;;;;;;5.20;1.90;;;13.10;76.40;;;;;;4797440;29;87394;-71
2022/11/25 12:49:33;;;;;;;3.10;1.30;;;13.00;75.80;;;;;;4798026;29;86980;-71
2022/11/25 12:52:05;;;;;;;4.93;1.00;;;12.90;75.80;;;;;;4801338;29;86296;-72
2022/11/25 12:54:52;;;;;;;4.15;1.40;;;12.90;76.30;;;;;;4793554;29;85770;-70
2022/11/25 12:57:26;;;;;;;4.63;1.30;;;12.70;76.10;;;;;;4796242;29;87460;-71
2022/11/25 13:00:03;;;;;;;4.65;1.50;;;12.60;76.50;;;;;;4798943;29;86410;-70
2022/11/25 13:03:03;;;;;;;5.25;1.60;;;12.40;76.90;;;;;;4797800;29;87599;-70
2022/11/25 13:06:02;;;;;;;4.50;1.88;;;12.30;77.70;;;;;;4799316;29;86785;-71
2022/11/25 13:08:56;;;;;;;5.30;1.67;;;12.20;78.10;;;;;;4799279;29;87472;-71
2022/11/25 13:12:03;;;;;;;4.90;1.27;;;12.30;78.30;;;;;;4798519;29;86975;-71
2022/11/25 13:14:53;;;;;;;4.65;1.42;;;12.30;77.70;;;;;;4797737;29;86966;-71
2022/11/25 13:17:19;;;;;;;4.75;1.10;;;12.10;78.00;;;;;;4793767;29;87402;-71
2022/11/25 13:19:45;;;;;;;2.58;1.05;;;12.00;78.50;;;;;;4797758;29;87243;-71
2022/11/25 13:22:17;;;;;;;4.43;1.38;;;11.90;79.40;;;;;;4803817;29;87057;-72
2022/11/25 13:24:42;;;;;;;4.50;1.40;;;11.90;79.70;;;;;;4796637;29;88453;-72
2022/11/25 13:27:30;;;;;;;5.03;1.50;;;11.80;80.10;;;;;;4800815;29;87383;-71
2022/11/25 13:29:56;;;;;;;4.13;1.40;;;11.60;80.30;;;;;;4799499;29;88085;-71
2022/11/25 13:32:30;;;;;;;5.25;2.00;;;11.50;80.20;;;;;;4786837;29;88563;-71
2022/11/25 13:35:25;;;;;;;4.20;1.63;;;11.50;80.60;;;;;;4799296;29;86502;-70
2022/11/25 13:37:50;;;;;;;5.88;1.75;;;11.40;81.10;;;;;;4795898;29;87033;-72
2022/11/25 13:40:28;;;;;;;4.90;2.17;;;11.40;81.60;;;;;;4802289;29;87736;-71
2022/11/25 13:42:56;;;;;;;7.55;1.85;;;11.40;81.40;;;;;;4802645;29;89321;-72
2022/11/25 13:45:42;;;;;;;4.07;1.15;;;11.30;81.30;;;;;;4799361;29;86804;-71
2022/11/25 13:48:25;;;;;;;3.97;1.40;;;11.20;82.20;;;;;;4799925;29;86158;-71
2022/11/25 13:51:17;;;;;;;3.42;1.10;;;11.10;82.40;;;;;;4796030;29;88582;-70
2022/11/25 13:53:56;;;;;;;6.05;1.15;;;11.10;82.50;;;;;;4792577;29;86724;-70
2022/11/25 13:56:33;;;;;;;4.50;1.23;;;11.10;82.80;;;;;;4798058;29;89166;-71
2022/11/25 13:59:12;;;;;;;4.38;1.80;;;11.00;83.30;;;;;;4800554;29;87493;-70
2022/11/25 14:01:52;;;;;;;5.10;1.77;;;11.00;82.90;;;;;;4794967;29;86622;-70
2022/11/25 14:04:45;;;;;;;3.13;1.20;;;11.00;83.00;;;;;;4803496;29;86944;-70
2022/11/25 14:07:25;;;;;;;3.10;1.23;;;11.00;83.10;;;;;;4791285;29;86848;-70
2022/11/25 14:10:17;;;;;;;4.38;1.60;;;11.00;82.90;;;;;;4800312;29;86736;-68
2022/11/25 14:13:06;;;;;;;3.75;1.30;;;10.90;82.70;;;;;;4801038;29;88338;-70
2022/11/25 14:16:12;;;;;;;2.95;1.33;;;10.90;83.00;;;;;;4795416;29;86189;-70
2022/11/25 14:18:48;;;;;;;4.95;1.73;;;10.80;83.30;;;;;;4802367;29;86486;-70
2022/11/25 14:21:32;;;;;;;5.47;1.52;;;10.80;83.10;;;;;;4799633;29;87058;-70
2022/11/25 14:24:10;;;;;;;6.43;1.63;;;10.80;82.80;;;;;;4800740;29;87997;-71
2022/11/25 14:26:39;;;;;;;4.20;1.80;;;10.80;83.00;;;;;;4803566;29;87255;-72
2022/11/25 14:29:14;;;;;;;7.10;1.60;;;10.70;82.40;;;;;;4806030;29;87259;-72
2022/11/25 14:31:44;;;;;;;5.43;1.92;;;10.80;82.30;;;;;;4804739;29;86410;-72
2022/11/25 14:34:55;;;;;;;7.85;2.40;;;10.90;87.50;;;;;;4806260;29;87231;-72
2022/11/25 14:38:01;;;;;;;5.38;2.03;;;10.90;84.10;;;;;;4804496;29;87692;-72
2022/11/25 14:40:45;;;;;;;7.32;3.00;;;10.90;82.60;;;;;;4802193;29;86945;-70
2022/11/25 14:43:14;;;;;;;10.55;3.05;;;10.70;83.00;;;;;;4806270;29;86201;-72
2022/11/25 14:45:40;;;;;;;4.97;1.85;;;10.80;83.20;;;;;;4800849;29;86985;-72
2022/11/25 14:48:24;;;;;;;6.82;2.50;;;10.60;83.90;;;;;;4803420;29;88196;-72
2022/11/25 14:51:10;;;;;;;7.60;2.50;;;10.60;84.50;;;;;;4802520;29;87404;-72
2022/11/25 14:53:40;;;;;;;12.40;3.63;;;10.50;85.90;;;;;;4799947;29;87162;-72
2022/11/25 14:56:06;;;;;;;8.38;2.95;;;10.50;86.60;;;;;;4800393;29;87310;-70
2022/11/25 14:58:32;;;;;;;6.90;3.20;;;10.50;87.40;;;;;;4804522;29;86795;-70
2022/11/25 15:01:04;;;;;;;10.05;3.97;;;10.50;86.90;;;;;;4801897;29;88221;-70
2022/11/25 15:03:29;;;;;;;11.48;3.15;;;10.50;87.70;;;;;;4804384;29;86667;-71
2022/11/25 15:06:00;;;;;;;18.98;9.73;;;10.50;88.70;;;;;;4805100;29;87424;-71
2022/11/25 15:08:26;;;;;;;7.70;2.97;;;10.40;88.70;;;;;;4804487;29;86974;-72
2022/11/25 15:11:00;;;;;;;6.47;2.80;;;10.40;89.00;;;;;;4801170;29;86785;-73
2022/11/25 15:13:37;;;;;;;35.00;13.73;;;10.30;90.00;;;;;;4803236;29;86923;-72
2022/11/25 15:16:06;;;;;;;23.88;8.13;;;10.30;89.80;;;;;;4803004;29;89488;-71
2022/11/25 15:18:33;;;;;;;11.50;4.80;;;10.10;90.70;;;;;;4801223;29;88121;-72
2022/11/25 15:21:00;;;;;;;9.02;3.70;;;10.10;90.60;;;;;;4804456;29;86546;-72
2022/11/25 15:23:35;;;;;;;6.00;2.15;;;10.00;91.00;;;;;;4802990;29;86844;-72
2022/11/25 15:26:02;;;;;;;5.70;1.70;;;9.90;90.40;;;;;;4804189;29;87404;-71
2022/11/25 15:28:36;;;;;;;8.48;2.50;;;9.90;90.30;;;;;;4806175;29;86724;-72
2022/11/25 15:31:09;;;;;;;8.07;2.65;;;9.90;90.70;;;;;;4807803;29;86351;-71
2022/11/25 15:33:36;;;;;;;7.90;2.10;;;9.90;90.40;;;;;;4803473;29;86084;-72
2022/11/25 15:36:02;;;;;;;6.55;2.60;;;10.00;90.40;;;;;;4802970;29;87182;-71
2022/11/25 15:38:46;;;;;;;7.15;2.78;;;10.00;90.50;;;;;;4804651;29;86951;-72
2022/11/25 15:41:28;;;;;;;6.82;2.42;;;10.10;90.70;;;;;;4803236;29;87790;-71
2022/11/25 15:43:56;;;;;;;4.93;1.60;;;10.10;92.50;;;;;;4802637;29;86462;-71
2022/11/25 15:46:23;;;;;;;5.82;1.98;;;10.10;90.30;;;;;;4799301;29;87305;-71
2022/11/25 15:48:51;;;;;;;5.03;2.17;;;10.10;90.30;;;;;;4800025;29;87366;-71
2022/11/25 15:51:36;;;;;;;10.38;2.13;;;10.10;91.50;;;;;;4804747;29;86932;-71
2022/11/25 15:54:25;;;;;;;5.97;2.30;;;9.90;91.80;;;;;;4800076;29;87064;-72
2022/11/25 15:56:54;;;;;;;9.85;2.35;;;9.90;91.60;;;;;;4801111;29;87241;-72
2022/11/25 15:59:55;;;;;;;9.43;2.60;;;10.00;91.80;;;;;;4801845;29;87663;-71
2022/11/25 16:02:27;;;;;;;8.45;2.97;;;10.00;92.40;;;;;;4798156;29;87579;-72
2022/11/25 16:05:10;;;;;;;8.65;2.15;;;10.10;92.10;;;;;;4801685;29;86331;-71
2022/11/25 16:07:58;;;;;;;9.82;2.42;;;10.00;92.10;;;;;;4801828;29;88388;-72
2022/11/25 16:10:47;;;;;;;6.13;2.13;;;9.90;92.50;;;;;;4798448;29;87990;-71
2022/11/25 16:13:22;;;;;;;7.70;2.22;;;9.80;92.50;;;;;;4807727;29;86761;-71
2022/11/25 16:16:06;;;;;;;11.55;3.22;;;9.80;92.70;;;;;;4804205;29;86794;-72
2022/11/25 16:19:15;;;;;;;8.23;2.58;;;9.70;93.10;;;;;;4804109;29;87839;-72
2022/11/25 16:21:45;;;;;;;11.07;3.25;;;9.80;92.50;;;;;;4746844;29;86671;-71
2022/11/25 16:24:37;;;;;;;11.02;3.85;;;9.80;92.40;;;;;;4740521;29;86925;-71
2022/11/25 16:27:04;;;;;;;11.32;3.75;;;9.80;92.70;;;;;;4787541;29;86068;-72
2022/11/25 16:29:36;;;;;;;12.18;3.63;;;9.90;92.80;;;;;;4805780;29;86727;-71
2022/11/25 16:32:13;;;;;;;9.98;3.15;;;9.90;92.50;;;;;;4809871;29;87375;-71
2022/11/25 16:34:39;;;;;;;9.82;3.40;;;9.90;92.50;;;;;;4809244;29;87293;-71
2022/11/25 16:37:05;;;;;;;7.40;3.25;;;9.90;92.20;;;;;;4800900;29;87108;-71
2022/11/25 16:39:30;;;;;;;8.13;3.00;;;9.90;92.10;;;;;;4807479;29;87063;-71
2022/11/25 16:42:00;;;;;;;9.77;3.65;;;10.00;92.20;;;;;;4802860;29;86883;-71
2022/11/25 16:44:27;;;;;;;6.88;2.85;;;10.00;92.50;;;;;;4808532;29;88463;-71
2022/11/25 16:46:53;;;;;;;9.50;2.90;;;10.10;92.80;;;;;;4801192;29;86713;-71
2022/11/25 16:49:21;;;;;;;8.05;2.90;;;10.10;91.80;;;;;;4787429;29;87155;-72
2022/11/25 16:51:49;;;;;;;8.57;2.40;;;10.10;91.80;;;;;;4790769;29;87414;-72
2022/11/25 16:54:16;;;;;;;8.30;2.33;;;10.10;91.50;;;;;;4787498;29;87582;-72
2022/11/25 16:56:43;;;;;;;6.75;2.08;;;10.10;91.10;;;;;;4781319;29;87712;-72
2022/11/25 16:59:15;;;;;;;9.57;2.42;;;10.10;91.10;;;;;;4785510;29;89615;-72
2022/11/25 17:01:42;;;;;;;6.72;2.40;;;10.20;91.30;;;;;;4783216;29;87126;-70
2022/11/25 17:04:10;;;;;;;7.85;2.55;;;10.10;91.40;;;;;;4782131;29;87521;-70
2022/11/25 17:06:36;;;;;;;7.50;2.55;;;10.10;91.50;;;;;;4784887;29;87276;-71
2022/11/25 17:09:02;;;;;;;3.70;0.57;;;10.20;91.30;;;;;;4783974;29;88394;-72
2022/11/25 17:11:32;;;;;;;5.60;1.70;;;10.20;90.40;;;;;;4783593;29;87219;-72